GMML

Hassan I Airport

El Aaiún, Western Sahara
METAR GMML 222100Z 31011KT 8000 NSC 18/15 Q1016 NOSIG
Observed Flight Rules
Apr-22 @ 21:00 UTC (57 minutes ago) Marginal Visual Flight Rules
Wind Visibility Clouds
310° at 11 knots 7,998 meters
  • Clear skies
Temperatures Readings
Current 18°C / 64°F
Dewpoint 15°C / 59°F
Humidity 83%
Altimeter 30" Hg
Pressure 1016 hPa
Elevation 6
METAR GMML 222100Z 31011KT 8000 NSC 18/15 Q1016 NOSIG
Observed Flight Rules
Apr-22 @ 21:00 UTC
(57 minutes ago)
MVFR
Wind Visibility
310° at 11 knots 7,998 meters
Clouds
  • Clear skies
Temperature Dewpoint
18°C / 64°F 15°C / 59°F
Humidity Altimeter Pressure
83% 30" Hg 1016 hPa